Time;durP1;ratioP1;P1;durP2;ratioP2;P2;SDS_P1;SDS_P2;PMS_P1;PMS_P2;Temp;Humidity;BMP_temperature;BMP_pressure;BME280_temperature;BME280_humidity;BME280_pressure;Samples;Min_cycle;Max_cycle;Signal;HPM_P1;HPM_P2
2022/06/04 00:01:44;;;;;;;;;32.50;31.50;;;;;17.59;84.52;100607.00;4995647;28;45307;-68
2022/06/04 00:04:12;;;;;;;;;39.25;33.75;;;;;17.47;84.48;100592.72;4997754;28;45544;-71
2022/06/04 00:06:37;;;;;;;;;32.75;31.50;;;;;17.54;84.32;100609.13;4994576;27;48537;-69
2022/06/04 00:09:07;;;;;;;;;34.25;31.75;;;;;17.54;85.11;100621.59;4996602;28;45264;-69
2022/06/04 00:17:00;;;;;;;;;33.50;30.00;;;;;17.42;85.85;100609.97;4992682;28;45296;-70
2022/06/04 00:19:26;;;;;;;;;34.00;32.00;;;;;17.36;85.89;100600.59;4991733;27;45249;-70
2022/06/04 00:21:51;;;;;;;;;40.25;33.00;;;;;17.35;86.13;100604.22;4993799;27;45424;-71
2022/06/04 00:24:17;;;;;;;;;36.50;32.75;;;;;17.33;86.70;100614.09;4994806;28;45396;-71
2022/06/04 00:26:42;;;;;;;;;36.75;32.50;;;;;17.29;86.47;100608.16;4995578;28;46432;-70
2022/06/04 00:29:09;;;;;;;;;35.00;32.75;;;;;17.26;86.61;100604.84;4994062;28;45447;-71
2022/06/04 00:31:36;;;;;;;;;38.75;33.25;;;;;17.25;86.78;100604.00;4992285;27;45380;-70
2022/06/04 00:34:03;;;;;;;;;36.25;33.25;;;;;17.24;86.90;100604.97;4994563;28;45223;-69
2022/06/04 00:36:31;;;;;;;;;45.00;38.25;;;;;17.22;86.68;100607.72;4992764;28;45253;-69
2022/06/04 00:38:57;;;;;;;;;36.50;32.00;;;;;17.18;86.88;100602.72;4994775;27;45364;-68
2022/06/04 00:41:34;;;;;;;;;30.50;30.00;;;;;17.18;87.44;100610.69;4992578;28;45365;-69
2022/06/04 00:44:22;;;;;;;;;36.25;32.25;;;;;17.14;86.52;100610.03;4995314;28;45370;-70
2022/06/04 00:47:09;;;;;;;;;32.25;30.25;;;;;17.14;86.95;100595.91;4994969;28;46317;-69
2022/06/04 00:49:35;;;;;;;;;33.00;30.75;;;;;17.10;86.83;100592.59;4994630;28;45169;-70
2022/06/04 00:52:01;;;;;;;;;41.75;35.75;;;;;17.11;86.92;100594.28;4995543;28;45269;-71
2022/06/04 00:54:28;;;;;;;;;37.75;34.50;;;;;17.06;87.26;100576.03;4995480;28;45388;-73
2022/06/04 00:57:15;;;;;;;;;32.75;31.75;;;;;17.11;86.46;100582.84;4995664;28;45294;-69
2022/06/04 01:00:04;;;;;;;;;34.25;32.00;;;;;17.11;86.80;100573.03;4994101;28;45510;-70
2022/06/04 01:02:48;;;;;;;;;39.25;33.25;;;;;17.11;86.98;100577.50;4995653;28;45400;-69
2022/06/04 01:05:25;;;;;;;;;34.25;32.25;;;;;17.07;86.79;100564.44;4995968;28;45286;-69
2022/06/04 01:07:57;;;;;;;;;35.25;33.00;;;;;17.06;86.78;100575.16;4995599;28;46957;-69
2022/06/04 01:10:43;;;;;;;;;35.00;30.25;;;;;17.06;86.38;100581.34;4995747;28;45239;-69
2022/06/04 01:13:29;;;;;;;;;36.00;32.25;;;;;17.04;86.50;100572.63;4997911;28;45260;-70
2022/06/04 01:16:15;;;;;;;;;34.25;30.75;;;;;17.07;86.07;100567.09;4997035;28;45361;-69
2022/06/04 01:18:58;;;;;;;;;43.00;36.00;;;;;17.05;86.40;100569.00;4995439;28;46418;-69
2022/06/04 01:21:49;;;;;;;;;42.00;33.50;;;;;17.02;86.95;100563.91;4995698;28;45349;-69
2022/06/04 01:24:37;;;;;;;;;32.50;31.25;;;;;17.01;86.64;100561.31;4995103;28;45338;-69
2022/06/04 01:27:18;;;;;;;;;41.75;33.50;;;;;17.00;86.92;100555.19;4995963;28;45247;-70
2022/06/04 01:29:57;;;;;;;;;34.00;32.50;;;;;16.97;86.87;100543.88;4995595;27;47354;-71
2022/06/04 01:32:28;;;;;;;;;34.00;31.25;;;;;16.97;86.69;100535.88;4998525;28;45423;-69
2022/06/04 01:35:12;;;;;;;;;30.75;29.25;;;;;17.00;86.32;100541.91;4997123;27;45315;-69
2022/06/04 01:37:50;;;;;;;;;48.25;36.50;;;;;17.00;85.97;100543.69;4995447;27;45461;-70
2022/06/04 01:43:11;;;;;;;;;36.50;33.00;;;;;17.02;85.84;100539.97;4996858;28;45183;-70
2022/06/04 01:45:40;;;;;;;;;41.75;35.00;;;;;17.01;85.69;100540.94;4997621;28;45238;-70
2022/06/04 01:48:07;;;;;;;;;38.50;33.00;;;;;16.90;85.72;100527.47;4995797;27;45551;-71
2022/06/04 01:50:40;;;;;;;;;35.00;30.50;;;;;17.02;85.06;100547.94;4993817;27;47826;-70
2022/06/04 01:53:09;;;;;;;;;32.75;30.75;;;;;17.02;84.92;100547.09;4996313;28;45306;-70
2022/06/04 01:55:54;;;;;;;;;34.75;31.75;;;;;17.03;84.84;100532.84;4995253;28;45320;-69
2022/06/04 01:58:27;;;;;;;;;30.75;29.75;;;;;17.01;85.14;100540.06;4995216;28;45406;-71
2022/06/04 02:00:59;;;;;;;;;30.75;30.00;;;;;16.99;85.33;100540.19;4993935;28;46047;-70
2022/06/04 02:03:51;;;;;;;;;35.75;32.00;;;;;16.96;85.57;100532.38;4995074;28;45314;-69
2022/06/04 02:06:27;;;;;;;;;35.00;31.25;;;;;16.92;85.53;100526.44;4997019;28;45264;-70
2022/06/04 02:09:00;;;;;;;;;32.50;29.75;;;;;16.89;86.08;100531.09;4995485;27;45225;-70
2022/06/04 02:11:26;;;;;;;;;35.25;33.00;;;;;16.87;86.20;100530.34;4996401;28;46282;-69
2022/06/04 02:13:57;;;;;;;;;38.50;33.50;;;;;16.83;86.86;100531.50;4996539;28;45278;-70
2022/06/04 02:16:31;;;;;;;;;45.50;37.75;;;;;16.83;86.51;100539.47;4994357;28;45384;-70
2022/06/04 02:18:58;;;;;;;;;40.00;34.50;;;;;16.74;86.57;100525.84;4994356;28;45320;-69
2022/06/04 02:21:27;;;;;;;;;42.75;34.75;;;;;16.79;86.27;100542.34;4994457;28;45452;-69
2022/06/04 02:23:54;;;;;;;;;43.75;37.25;;;;;16.81;86.50;100536.94;4994634;28;45243;-70
2022/06/04 02:26:19;;;;;;;;;46.75;39.00;;;;;16.81;86.20;100534.28;4994842;28;45321;-70
2022/06/04 02:28:46;;;;;;;;;33.50;30.75;;;;;16.85;85.78;100543.75;4993994;27;45595;-70
2022/06/04 02:31:29;;;;;;;;;36.25;33.50;;;;;16.89;85.28;100547.88;4995348;28;45413;-70
2022/06/04 02:34:10;;;;;;;;;39.25;34.25;;;;;16.91;84.86;100539.81;4995781;28;45269;-71
2022/06/04 02:36:51;;;;;;;;;37.00;33.50;;;;;16.95;84.90;100538.63;4996107;28;45448;-69
2022/06/04 02:39:27;;;;;;;;;38.25;33.00;;;;;16.97;85.16;100528.81;4995529;28;45408;-69
2022/06/04 02:42:00;;;;;;;;;36.00;31.75;;;;;16.87;85.57;100517.91;4997381;28;45477;-69
2022/06/04 02:44:28;;;;;;;;;36.50;31.25;;;;;16.93;84.93;100522.81;4995094;28;45271;-70
2022/06/04 02:47:04;;;;;;;;;29.50;29.25;;;;;16.93;85.11;100516.63;4993188;28;45496;-69
2022/06/04 02:49:32;;;;;;;;;39.00;32.75;;;;;16.92;85.17;100517.59;4995117;28;45346;-71
2022/06/04 02:51:58;;;;;;;;;32.50;29.00;;;;;16.92;85.43;100525.56;4994226;28;46441;-70
2022/06/04 02:54:23;;;;;;;;;30.00;29.75;;;;;16.93;84.90;100528.13;4994486;28;45193;-69
2022/06/04 02:56:51;;;;;;;;;31.75;29.00;;;;;16.96;84.41;100527.06;4997274;28;45346;-69
2022/06/04 02:59:19;;;;;;;;;31.00;29.75;;;;;17.00;84.20;100536.59;4994551;27;45544;-70
2022/06/04 03:01:47;;;;;;;;;32.25;31.00;;;;;17.03;83.94;100525.75;4993579;28;46632;-70
2022/06/04 03:04:13;;;;;;;;;32.25;29.00;;;;;17.01;83.92;100514.38;4995793;28;45194;-70
2022/06/04 03:06:39;;;;;;;;;31.00;30.00;;;;;17.04;83.79;100513.28;4995825;28;45287;-70
2022/06/04 03:09:08;;;;;;;;;35.75;30.75;;;;;17.03;84.00;100517.78;4995531;27;45322;-71
2022/06/04 03:11:48;;;;;;;;;28.75;27.75;;;;;17.01;84.09;100513.50;4997733;28;46344;-70
2022/06/04 03:14:15;;;;;;;;;36.00;31.00;;;;;16.98;84.45;100508.41;4997273;28;45266;-70
2022/06/04 03:16:43;;;;;;;;;35.25;31.75;;;;;16.94;84.34;100505.06;4998093;27;45284;-71
2022/06/04 03:19:09;;;;;;;;;36.75;33.00;;;;;16.98;83.80;100509.25;4994782;28;45282;-69
2022/06/04 03:21:39;;;;;;;;;30.50;30.00;;;;;17.02;83.78;100510.75;4994093;28;45332;-70
2022/06/04 03:24:06;;;;;;;;;32.75;31.25;;;;;17.06;83.72;100506.94;4995332;27;45361;-70
2022/06/04 03:26:32;;;;;;;;;34.00;30.25;;;;;17.11;83.66;100506.59;4995869;28;45336;-70
2022/06/04 03:28:57;;;;;;;;;33.75;30.50;;;;;17.13;83.49;100491.38;4994616;28;45487;-71
2022/06/04 03:31:26;;;;;;;;;31.50;30.00;;;;;17.15;83.30;100483.31;4997116;28;47073;-70
2022/06/04 03:33:52;;;;;;;;;30.25;28.50;;;;;17.18;83.48;100485.78;4993104;27;45469;-72
2022/06/04 03:36:17;;;;;;;;;33.00;29.75;;;;;17.21;83.27;100488.22;4995458;28;45546;-70
2022/06/04 03:38:42;;;;;;;;;31.00;27.00;;;;;17.23;83.06;100484.47;4994956;28;45234;-70
2022/06/04 03:41:08;;;;;;;;;28.75;27.50;;;;;17.28;82.92;100489.47;4995311;27;45346;-71
2022/06/04 03:43:33;;;;;;;;;30.00;27.50;;;;;17.31;82.95;100489.28;4994635;27;45458;-70
2022/06/04 03:45:58;;;;;;;;;25.50;25.50;;;;;17.31;82.64;100470.66;4993792;27;45272;-70
2022/06/04 03:48:24;;;;;;;;;19.25;19.25;;;;;17.38;82.70;100471.94;4993724;28;45257;-70
2022/06/04 03:50:50;;;;;;;;;26.25;24.25;;;;;17.44;82.47;100469.78;4994228;28;45590;-70
2022/06/04 03:53:15;;;;;;;;;23.75;23.75;;;;;17.47;82.09;100481.03;4994078;27;45174;-70
2022/06/04 03:55:41;;;;;;;;;23.75;20.75;;;;;17.47;82.11;100480.22;4993985;27;45216;-69
2022/06/04 03:58:06;;;;;;;;;23.25;23.25;;;;;17.50;81.62;100501.25;4994169;28;45353;-69
2022/06/04 04:00:35;;;;;;;;;22.75;21.25;;;;;17.57;81.44;100515.00;4994078;28;46366;-69
2022/06/04 04:03:04;;;;;;;;;28.00;26.00;;;;;17.59;81.20;100532.53;4995362;27;45349;-68
2022/06/04 04:05:36;;;;;;;;;25.75;25.75;;;;;17.57;81.14;100529.13;4995357;27;45306;-70
2022/06/04 04:08:04;;;;;;;;;31.75;29.00;;;;;17.49;81.03;100524.31;4994902;28;45496;-69
2022/06/04 04:10:30;;;;;;;;;32.75;29.50;;;;;17.50;81.39;100533.16;4993482;28;46059;-70
2022/06/04 04:12:56;;;;;;;;;29.00;26.00;;;;;17.47;81.34;100536.88;4993262;28;45169;-70
2022/06/04 04:15:22;;;;;;;;;27.50;26.75;;;;;17.47;81.22;100552.00;4992801;28;45386;-68
2022/06/04 04:17:49;;;;;;;;;31.25;30.50;;;;;17.48;81.49;100551.88;4993770;28;45340;-69
2022/06/04 04:20:25;;;;;;;;;30.75;30.00;;;;;17.48;81.59;100543.06;4993199;28;45390;-70
2022/06/04 04:22:51;;;;;;;;;32.75;29.50;;;;;17.49;81.46;100553.56;4994050;28;45352;-70
2022/06/04 04:25:20;;;;;;;;;31.75;30.00;;;;;17.48;81.54;100561.69;4995270;28;45446;-70
2022/06/04 04:27:46;;;;;;;;;24.25;24.00;;;;;17.47;81.38;100571.44;4994345;28;45242;-70
2022/06/04 04:30:14;;;;;;;;;31.25;28.50;;;;;17.56;81.42;100590.41;4993336;28;46175;-71
2022/06/04 04:32:40;;;;;;;;;31.25;28.50;;;;;17.57;81.13;100600.94;4991911;27;45361;-69
2022/06/04 04:35:08;;;;;;;;;28.50;26.75;;;;;17.58;80.82;100583.19;4993555;28;45445;-70
2022/06/04 04:37:33;;;;;;;;;26.50;26.50;;;;;17.69;80.82;100582.41;4992149;28;45654;-72
2022/06/04 04:39:59;;;;;;;;;30.75;27.75;;;;;17.72;80.67;100598.16;4991637;28;45805;-70
2022/06/04 04:42:24;;;;;;;;;28.50;28.00;;;;;17.75;80.34;100609.44;4992837;28;45224;-71
2022/06/04 04:44:50;;;;;;;;;28.50;25.75;;;;;17.83;80.01;100614.22;4993745;28;45304;-70
2022/06/04 04:47:16;;;;;;;;;22.25;22.25;;;;;17.88;79.90;100604.09;4993789;27;45299;-71
2022/06/04 04:49:42;;;;;;;;;25.75;22.50;;;;;17.92;79.72;100592.28;4993081;28;46386;-70
2022/06/04 04:52:08;;;;;;;;;23.75;23.75;;;;;17.91;79.59;100608.34;4992208;27;45382;-70
2022/06/04 04:54:33;;;;;;;;;21.00;21.00;;;;;17.96;79.58;100631.00;4992064;28;45349;-70
2022/06/04 04:56:59;;;;;;;;;24.25;23.50;;;;;18.01;79.30;100625.41;4990726;28;45500;-69
2022/06/04 04:59:24;;;;;;;;;25.25;23.75;;;;;18.04;79.28;100625.19;4990247;28;47218;-70
2022/06/04 05:01:50;;;;;;;;;25.00;23.75;;;;;18.07;79.08;100627.63;4991895;28;45393;-69
2022/06/04 05:04:15;;;;;;;;;20.50;20.00;;;;;18.07;78.99;100609.00;4991758;28;45375;-70
2022/06/04 05:06:41;;;;;;;;;21.25;21.25;;;;;18.12;78.76;100607.81;4991621;28;45329;-70
2022/06/04 05:09:06;;;;;;;;;19.50;19.50;;;;;18.13;78.95;100607.72;4993533;28;46228;-70
2022/06/04 05:11:32;;;;;;;;;21.25;20.00;;;;;18.17;78.95;100618.97;4992096;28;45262;-71
2022/06/04 05:13:59;;;;;;;;;23.50;20.75;;;;;18.15;78.81;100592.50;4992601;27;45220;-70
2022/06/04 05:16:29;;;;;;;;;24.00;23.25;;;;;18.28;78.88;100602.25;4993900;28;45519;-70
2022/06/04 05:18:55;;;;;;;;;23.75;20.50;;;;;18.30;78.38;100590.50;4993006;28;45354;-71
2022/06/04 05:21:43;;;;;;;;;24.75;22.50;;;;;18.39;78.25;100604.97;4993413;28;45313;-71
2022/06/04 05:24:21;;;;;;;;;20.75;19.25;;;;;18.50;77.73;100598.84;4991946;28;45288;-72
2022/06/04 05:26:49;;;;;;;;;23.25;22.00;;;;;18.57;77.95;100593.94;4995027;28;45464;-71
2022/06/04 05:29:15;;;;;;;;;19.00;17.75;;;;;18.63;77.37;100591.69;4993745;28;45416;-71
2022/06/04 05:31:41;;;;;;;;;20.25;20.25;;;;;18.65;76.88;100567.56;4992993;28;45333;-70
2022/06/04 05:34:08;;;;;;;;;21.50;19.25;;;;;18.72;76.67;100566.16;4992519;28;45296;-71
2022/06/04 05:36:34;;;;;;;;;17.25;16.50;;;;;18.75;76.85;100547.25;4996165;28;45273;-70
2022/06/04 05:38:59;;;;;;;;;19.50;18.25;;;;;18.82;76.50;100550.31;4995228;28;45347;-71
2022/06/04 05:41:25;;;;;;;;;24.25;20.50;;;;;18.87;76.35;100558.81;4993433;28;46080;-71
2022/06/04 05:43:52;;;;;;;;;19.00;19.00;;;;;18.93;75.82;100569.03;4995384;28;45309;-70
2022/06/04 05:46:19;;;;;;;;;22.50;19.25;;;;;19.00;76.07;100573.91;4994473;27;45347;-69
2022/06/04 05:48:46;;;;;;;;;20.75;20.75;;;;;19.06;75.59;100568.94;4993976;28;45404;-71
2022/06/04 05:51:14;;;;;;;;;22.50;20.25;;;;;19.18;75.19;100582.34;4993779;27;45332;-69
2022/06/04 05:53:40;;;;;;;;;22.75;21.00;;;;;19.36;75.22;100588.91;4996269;27;45339;-70
2022/06/04 05:56:29;;;;;;;;;22.50;19.50;;;;;19.62;74.47;100596.69;4994527;28;45225;-70
2022/06/04 05:58:58;;;;;;;;;22.00;22.00;;;;;19.82;73.48;100602.28;4993785;28;46273;-71
2022/06/04 06:01:26;;;;;;;;;25.75;22.50;;;;;19.95;72.87;100600.34;4992704;27;45338;-70
2022/06/04 06:03:52;;;;;;;;;29.50;29.00;;;;;20.03;71.75;100601.56;4994533;28;45456;-70
2022/06/04 06:06:21;;;;;;;;;25.75;25.00;;;;;19.93;71.38;100612.97;4995039;28;45368;-71
2022/06/04 06:08:47;;;;;;;;;27.00;25.00;;;;;19.80;71.80;100617.56;4994587;28;45381;-69
2022/06/04 06:11:15;;;;;;;;;31.00;29.25;;;;;19.71;72.42;100637.84;4993703;28;45358;-70
2022/06/04 06:13:42;;;;;;;;;25.00;23.75;;;;;19.69;72.33;100637.94;4993640;28;45159;-70
2022/06/04 06:16:12;;;;;;;;;25.50;25.50;;;;;19.62;72.58;100634.06;4994002;28;45359;-70
2022/06/04 06:18:39;;;;;;;;;28.00;27.00;;;;;19.57;72.06;100649.56;4994238;28;47102;-69
2022/06/04 06:21:10;;;;;;;;;30.75;29.25;;;;;19.46;72.57;100652.22;4994604;27;45333;-70
2022/06/04 06:23:36;;;;;;;;;30.00;28.00;;;;;19.33;72.66;100631.81;4993985;28;45458;-72
2022/06/04 06:26:06;;;;;;;;;32.75;29.50;;;;;19.00;73.47;100621.91;4994318;28;45475;-70
2022/06/04 06:28:36;;;;;;;;;26.75;26.00;;;;;19.06;73.68;100696.91;4994008;28;45785;-71
2022/06/04 06:31:03;;;;;;;;;30.50;28.75;;;;;18.94;73.55;100666.66;4993968;28;45425;-69
2022/06/04 06:33:29;;;;;;;;;25.75;25.75;;;;;18.93;73.92;100707.63;4994846;27;45233;-70
2022/06/04 06:35:56;;;;;;;;;29.00;29.00;;;;;18.87;73.88;100725.84;4994639;27;45303;-71
2022/06/04 06:38:21;;;;;;;;;22.75;19.00;;;;;18.83;74.18;100704.75;4993636;28;46218;-70
2022/06/04 06:40:47;;;;;;;;;28.50;27.25;;;;;18.84;74.26;100700.28;4997903;28;45225;-72
2022/06/04 06:43:12;;;;;;;;;36.75;30.50;;;;;18.78;74.67;100677.59;4995016;27;45353;-71
2022/06/04 06:45:37;;;;;;;;;31.25;28.75;;;;;18.83;74.88;100687.94;4994202;27;45572;-71
2022/06/04 06:48:03;;;;;;;;;32.00;28.00;;;;;18.83;74.60;100690.59;4996117;28;45989;-70
2022/06/04 06:50:28;;;;;;;;;29.75;26.50;;;;;18.86;74.94;100689.50;4997670;27;45332;-71
2022/06/04 06:52:54;;;;;;;;;27.25;26.75;;;;;18.86;75.01;100687.72;4996660;27;45780;-71
2022/06/04 06:55:19;;;;;;;;;29.50;28.50;;;;;18.88;74.48;100703.56;4998576;28;45684;-70
2022/06/04 06:57:44;;;;;;;;;32.25;29.25;;;;;18.88;74.76;100703.56;4994669;28;46452;-71
2022/06/04 07:00:10;;;;;;;;;33.25;30.00;;;;;18.90;74.83;100699.84;4994877;28;45343;-69
2022/06/04 07:02:36;;;;;;;;;33.25;30.00;;;;;18.93;75.01;100686.28;4998814;28;45276;-69
2022/06/04 07:05:02;;;;;;;;;31.00;28.75;;;;;18.93;74.39;100669.44;4994549;27;45514;-70
2022/06/04 07:07:27;;;;;;;;;30.00;29.50;;;;;18.94;75.08;100652.47;4994394;27;45863;-70
2022/06/04 07:09:54;;;;;;;;;31.25;28.00;;;;;18.93;74.68;100646.31;4994147;27;45298;-69
2022/06/04 07:12:19;;;;;;;;;33.00;30.00;;;;;18.99;74.78;100647.69;4997078;28;45398;-70
2022/06/04 07:14:45;;;;;;;;;27.50;27.50;;;;;19.02;75.18;100644.78;4995447;28;45403;-70
2022/06/04 07:17:11;;;;;;;;;28.75;27.75;;;;;19.06;74.85;100634.75;4995363;27;45221;-70
2022/06/04 07:19:37;;;;;;;;;30.50;28.75;;;;;19.16;74.76;100637.59;4994430;27;45318;-71
2022/06/04 07:22:03;;;;;;;;;30.50;28.00;;;;;19.25;75.04;100642.22;4996602;27;45360;-70
2022/06/04 07:24:28;;;;;;;;;29.50;28.75;;;;;19.35;75.21;100634.34;4995282;27;45290;-70
2022/06/04 07:26:54;;;;;;;;;30.75;29.25;;;;;19.47;75.08;100638.75;4992934;27;45385;-70
2022/06/04 07:29:21;;;;;;;;;29.00;29.00;;;;;19.64;74.25;100639.28;4994958;28;45232;-71
2022/06/04 07:31:46;;;;;;;;;27.25;27.25;;;;;19.79;73.94;100664.78;4996574;27;45245;-70
2022/06/04 07:34:12;;;;;;;;;22.75;22.25;;;;;19.89;73.63;100672.88;4996336;28;45170;-71
2022/06/04 07:36:42;;;;;;;;;23.75;23.75;;;;;19.95;73.38;100674.28;4995939;28;45301;-69
2022/06/04 07:39:10;;;;;;;;;25.25;23.50;;;;;19.97;72.88;100678.50;4993314;28;45854;-69
2022/06/04 07:41:39;;;;;;;;;26.25;23.75;;;;;20.02;73.14;100685.31;4991573;27;45460;-70
2022/06/04 07:44:08;;;;;;;;;23.25;22.50;;;;;20.03;73.07;100673.66;4992631;28;45434;-70
2022/06/04 07:46:34;;;;;;;;;31.00;29.00;;;;;20.03;73.78;100673.66;4990638;28;47012;-71
2022/06/04 07:49:01;;;;;;;;;25.75;25.25;;;;;20.05;73.57;100677.06;4992561;28;45302;-70
2022/06/04 07:51:28;;;;;;;;;31.00;28.50;;;;;20.10;72.99;100680.22;4992863;28;45348;-69
2022/06/04 07:53:54;;;;;;;;;27.50;27.50;;;;;20.11;73.22;100695.25;4993439;27;45236;-69
2022/06/04 07:56:20;;;;;;;;;32.00;29.25;;;;;20.12;73.25;100700.50;4992536;27;46123;-71
2022/06/04 07:58:47;;;;;;;;;26.50;26.50;;;;;20.12;72.94;100694.28;4992004;27;45306;-69
2022/06/04 08:01:14;;;;;;;;;29.75;27.00;;;;;20.15;73.05;100696.75;4991294;28;45464;-69
2022/06/04 08:03:41;;;;;;;;;34.50;29.75;;;;;20.21;73.33;100698.94;4992935;28;45318;-69
2022/06/04 08:06:07;;;;;;;;;34.50;32.00;;;;;20.17;72.64;100696.59;4993958;28;45461;-71
2022/06/04 08:08:34;;;;;;;;;35.00;31.50;;;;;20.14;72.26;100692.34;4993720;28;45321;-70
2022/06/04 08:11:00;;;;;;;;;33.25;29.75;;;;;20.11;72.79;100684.56;4991833;28;45314;-71
2022/06/04 08:13:26;;;;;;;;;44.00;36.00;;;;;20.14;73.43;100676.31;4993290;27;45525;-72
2022/06/04 08:15:57;;;;;;;;;34.75;32.00;;;;;20.24;72.88;100652.41;4991098;27;47122;-72
2022/06/04 08:18:22;;;;;;;;;36.00;31.50;;;;;20.32;72.46;100660.66;4992749;28;45341;-69
2022/06/04 08:20:47;;;;;;;;;34.50;31.75;;;;;20.52;72.28;100661.72;4993637;28;45344;-70
2022/06/04 08:23:14;;;;;;;;;40.50;33.25;;;;;20.67;72.20;100661.44;4994566;27;45283;-70
2022/06/04 08:25:48;;;;;;;;;36.50;32.50;;;;;20.86;71.38;100659.00;4992569;28;45365;-70
2022/06/04 08:28:14;;;;;;;;;33.50;30.50;;;;;21.04;71.15;100668.28;4994104;28;45537;-70
2022/06/04 08:30:41;;;;;;;;;34.50;32.00;;;;;21.35;70.75;100684.44;4996240;28;45301;-70
2022/06/04 08:33:09;;;;;;;;;35.00;30.50;;;;;21.70;69.32;100692.19;4999239;28;45465;-71
2022/06/04 08:35:34;;;;;;;;;38.50;33.50;;;;;22.01;68.54;100688.69;4997166;28;46122;-69
2022/06/04 08:37:59;;;;;;;;;40.00;34.50;;;;;22.16;68.23;100681.13;4996002;28;45328;-71
2022/06/04 08:40:32;;;;;;;;;32.75;30.50;;;;;22.30;66.84;100687.94;4994743;27;45444;-71
2022/06/04 08:43:23;;;;;;;;;32.25;29.50;;;;;22.33;65.88;100687.69;4993619;27;45481;-70
2022/06/04 08:45:49;;;;;;;;;31.75;29.25;;;;;22.31;65.97;100690.50;4992322;28;46087;-70
2022/06/04 08:48:32;;;;;;;;;31.25;29.00;;;;;22.26;65.61;100686.53;4992017;27;45406;-70
2022/06/04 08:50:58;;;;;;;;;29.00;27.75;;;;;22.21;65.14;100686.09;4994467;28;45255;-71
2022/06/04 08:53:27;;;;;;;;;29.75;28.00;;;;;22.25;65.29;100691.03;4991485;27;45355;-70
2022/06/04 08:59:08;;;;;;;;;30.75;29.75;;;;;22.28;64.08;100708.66;4992153;28;45255;-71
2022/06/04 09:01:42;;;;;;;;;29.50;27.75;;;;;22.23;64.38;100697.50;4992363;28;45579;-71
2022/06/04 09:04:26;;;;;;;;;34.50;32.00;;;;;22.24;64.04;100716.13;4992315;28;45413;-70
2022/06/04 09:07:06;;;;;;;;;29.25;28.25;;;;;22.26;64.13;100724.03;4991540;28;45448;-70
2022/06/04 09:09:38;;;;;;;;;32.50;28.75;;;;;22.25;63.89;100717.81;4990557;28;45208;-73
2022/06/04 09:12:32;;;;;;;;;29.50;27.75;;;;;22.28;63.80;100717.56;4994593;28;45259;-70
2022/06/04 09:15:01;;;;;;;;;22.50;22.50;;;;;22.32;63.45;100723.50;4994380;27;45518;-70
2022/06/04 09:17:37;;;;;;;;;34.25;30.50;;;;;22.42;63.53;100721.69;4996811;28;46168;-71
2022/06/04 09:20:21;;;;;;;;;23.75;23.75;;;;;22.56;63.44;100714.28;5001214;28;45168;-71
2022/06/04 09:22:48;;;;;;;;;27.75;25.25;;;;;22.65;62.90;100709.94;4996205;28;45248;-71
2022/06/04 09:25:21;;;;;;;;;31.75;28.25;;;;;22.72;62.85;100703.06;4997673;27;45595;-70
2022/06/04 09:27:57;;;;;;;;;22.25;22.25;;;;;22.80;62.48;100711.25;4997614;28;45451;-70
2022/06/04 09:30:39;;;;;;;;;25.75;25.25;;;;;22.95;62.25;100716.22;4994601;28;45434;-72
2022/06/04 09:33:17;;;;;;;;;26.50;26.50;;;;;23.03;61.64;100713.66;4993404;28;45377;-70
2022/06/04 09:35:44;;;;;;;;;28.25;24.25;;;;;23.14;61.44;100716.22;4996048;27;45287;-69
2022/06/04 09:38:31;;;;;;;;;23.00;20.50;;;;;23.23;60.44;100716.34;4992784;27;47445;-69
2022/06/04 09:40:59;;;;;;;;;24.50;22.75;;;;;23.23;60.76;100711.84;4995151;28;45310;-72
2022/06/04 09:43:25;;;;;;;;;22.75;22.75;;;;;23.29;60.65;100711.31;4995716;27;45329;-71
2022/06/04 09:45:53;;;;;;;;;28.25;24.00;;;;;23.40;59.66;100702.28;4995764;27;45509;-69
2022/06/04 09:48:27;;;;;;;;;22.75;20.25;;;;;23.47;59.30;100707.91;4993916;28;46035;-70
2022/06/04 09:51:00;;;;;;;;;20.00;18.50;;;;;23.56;59.44;100709.72;4992917;28;45249;-69
2022/06/04 09:53:29;;;;;;;;;19.00;18.50;;;;;23.57;58.64;100706.06;4994121;28;45476;-72
2022/06/04 09:55:59;;;;;;;;;20.50;19.50;;;;;23.66;59.11;100711.56;4993292;27;45261;-69
2022/06/04 09:58:30;;;;;;;;;19.75;18.00;;;;;23.77;56.88;100716.75;4995350;27;45296;-70
2022/06/04 10:01:14;;;;;;;;;23.25;21.50;;;;;23.90;56.94;100703.03;4994530;27;45323;-70
2022/06/04 10:03:39;;;;;;;;;20.25;19.25;;;;;23.97;56.73;100700.59;4994773;27;45334;-72
2022/06/04 10:06:11;;;;;;;;;19.50;19.25;;;;;24.09;56.04;100706.66;4994649;28;45502;-72
2022/06/04 10:11:34;;;;;;;;;15.25;14.75;;;;;24.38;55.10;100705.69;4995563;28;45255;-72
2022/06/04 10:14:00;;;;;;;;;16.00;16.00;;;;;24.47;55.51;100702.94;4994714;27;45330;-70
2022/06/04 10:16:26;;;;;;;;;17.00;17.00;;;;;24.65;54.65;100712.91;4995209;28;45307;-69
2022/06/04 10:18:53;;;;;;;;;19.00;17.50;;;;;24.74;54.28;100717.41;4995073;28;45402;-72
2022/06/04 10:21:21;;;;;;;;;18.75;17.00;;;;;24.80;53.93;100710.56;4996345;28;45317;-71
2022/06/04 10:23:53;;;;;;;;;17.25;17.25;;;;;24.83;53.75;100710.28;4996023;28;45386;-71
2022/06/04 10:26:43;;;;;;;;;18.25;16.75;;;;;24.93;53.52;100708.34;4995877;28;45280;-69
2022/06/04 10:29:33;;;;;;;;;17.25;17.25;;;;;25.05;53.45;100706.31;4994942;28;46217;-72
2022/06/04 10:32:16;;;;;;;;;19.50;16.75;;;;;25.17;53.15;100703.38;4994897;28;45535;-72
2022/06/04 10:34:59;;;;;;;;;23.50;22.00;;;;;25.19;52.63;100694.13;4993014;28;45281;-70
2022/06/04 10:37:56;;;;;;;;;20.75;19.25;;;;;25.22;51.84;100698.38;4995799;28;45174;-71
2022/06/04 10:40:31;;;;;;;;;18.00;18.00;;;;;25.20;52.81;100705.75;4994480;28;46166;-76
2022/06/04 10:43:23;;;;;;;;;18.00;18.00;;;;;25.20;52.66;100690.44;4996423;28;45502;-72
2022/06/04 10:46:00;;;;;;;;;13.25;12.00;;;;;25.36;52.42;100688.88;4996605;28;45312;-74
2022/06/04 10:48:53;;;;;;;;;20.25;19.00;;;;;25.49;51.80;100689.38;4993081;28;45634;-69
2022/06/04 10:51:29;;;;;;;;;18.25;17.75;;;;;25.62;51.50;100697.00;4996314;27;45424;-73
2022/06/04 10:54:04;;;;;;;;;19.00;17.00;;;;;25.72;51.25;100704.16;4994600;28;45372;-71
2022/06/04 10:57:08;;;;;;;;;18.00;16.75;;;;;25.75;51.34;100695.75;4993480;28;45399;-71
2022/06/04 10:59:46;;;;;;;;;16.00;13.75;;;;;25.89;51.56;100686.25;4993537;28;45263;-71
2022/06/04 11:02:23;;;;;;;;;11.75;10.50;;;;;25.98;50.73;100685.28;4993518;28;45295;-72
2022/06/04 11:04:56;;;;;;;;;20.25;20.25;;;;;26.12;50.90;100678.47;4994289;28;45317;-70
2022/06/04 11:07:48;;;;;;;;;18.00;17.00;;;;;26.24;50.12;100677.19;4993723;28;45208;-71
2022/06/04 11:10:17;;;;;;;;;16.00;16.00;;;;;26.33;49.85;100680.75;4993706;28;45316;-71
2022/06/04 11:13:02;;;;;;;;;12.00;12.00;;;;;26.42;49.59;100673.53;4993534;28;45465;-69
2022/06/04 11:15:39;;;;;;;;;13.75;13.75;;;;;26.51;49.45;100680.63;4993412;28;45490;-70
2022/06/04 11:18:11;;;;;;;;;20.75;20.75;;;;;26.64;49.12;100668.53;4993893;27;45306;-71
2022/06/04 11:20:43;;;;;;;;;17.75;16.50;;;;;26.68;49.02;100659.09;4995028;27;45359;-70
2022/06/04 11:23:37;;;;;;;;;14.75;12.25;;;;;26.78;48.70;100667.88;4995886;28;45354;-69
2022/06/04 11:26:12;;;;;;;;;14.00;14.00;;;;;26.87;48.58;100662.53;4997072;28;45375;-72
2022/06/04 11:28:38;;;;;;;;;13.50;13.50;;;;;26.94;48.33;100663.53;4996144;28;45432;-72
2022/06/04 11:31:16;;;;;;;;;19.50;17.50;;;;;27.05;47.78;100659.69;4994734;28;45305;-73
2022/06/04 11:34:14;;;;;;;;;16.25;16.25;;;;;27.15;47.10;100662.22;4994169;28;45276;-70
2022/06/04 11:37:08;;;;;;;;;10.00;8.00;;;;;27.17;47.04;100654.78;4992377;27;45681;-71
2022/06/04 11:40:08;;;;;;;;;8.50;8.50;;;;;27.27;46.61;100655.47;4993265;27;45493;-70
2022/06/04 11:42:54;;;;;;;;;15.25;15.25;;;;;27.29;46.44;100648.03;4993564;28;45496;-70